sensor_id;sensor_type;location;lat;lon;timestamp;pressure;altitude;pressure_sealevel;temperature;humidity
63493;BME280;49638;47.526;10.028;2023-05-15T00:02:35;91306.94;;;8.93;100.00
63493;BME280;49638;47.526;10.028;2023-05-15T00:05:36;91305.13;;;8.93;100.00
63493;BME280;49638;47.526;10.028;2023-05-15T00:08:37;91303.28;;;8.94;100.00
63493;BME280;49638;47.526;10.028;2023-05-15T00:11:37;91302.47;;;8.93;100.00
63493;BME280;49638;47.526;10.028;2023-05-15T00:14:37;91303.75;;;8.91;100.00
63493;BME280;49638;47.526;10.028;2023-05-15T00:17:37;91300.56;;;8.89;100.00
63493;BME280;49638;47.526;10.028;2023-05-15T00:20:38;91293.94;;;8.86;100.00
63493;BME280;49638;47.526;10.028;2023-05-15T00:23:38;91282.75;;;8.79;100.00
63493;BME280;49638;47.526;10.028;2023-05-15T00:26:38;91291.81;;;8.83;100.00
63493;BME280;49638;47.526;10.028;2023-05-15T00:29:38;91301.53;;;8.83;100.00
63493;BME280;49638;47.526;10.028;2023-05-15T00:32:39;91298.09;;;8.82;100.00
63493;BME280;49638;47.526;10.028;2023-05-15T00:35:39;91287.50;;;8.77;100.00
63493;BME280;49638;47.526;10.028;2023-05-15T00:38:39;91285.34;;;8.74;100.00
63493;BME280;49638;47.526;10.028;2023-05-15T00:41:40;91307.28;;;8.80;100.00
63493;BME280;49638;47.526;10.028;2023-05-15T00:44:43;91304.41;;;8.81;100.00
63493;BME280;49638;47.526;10.028;2023-05-15T00:47:44;91294.91;;;8.80;100.00
63493;BME280;49638;47.526;10.028;2023-05-15T00:50:45;91295.94;;;8.79;100.00
63493;BME280;49638;47.526;10.028;2023-05-15T00:53:46;91293.88;;;8.81;100.00
63493;BME280;49638;47.526;10.028;2023-05-15T00:56:46;91281.44;;;8.76;100.00
63493;BME280;49638;47.526;10.028;2023-05-15T00:59:50;91284.91;;;8.82;100.00
63493;BME280;49638;47.526;10.028;2023-05-15T01:02:52;91295.47;;;8.82;100.00
63493;BME280;49638;47.526;10.028;2023-05-15T01:05:53;91294.66;;;8.82;100.00
63493;BME280;49638;47.526;10.028;2023-05-15T01:08:55;91288.59;;;8.81;100.00
63493;BME280;49638;47.526;10.028;2023-05-15T01:11:56;91273.75;;;8.75;100.00
63493;BME280;49638;47.526;10.028;2023-05-15T01:14:58;91285.19;;;8.81;100.00
63493;BME280;49638;47.526;10.028;2023-05-15T01:17:58;91281.75;;;8.80;100.00
63493;BME280;49638;47.526;10.028;2023-05-15T01:27:35;91292.50;;;8.79;100.00
63493;BME280;49638;47.526;10.028;2023-05-15T01:30:39;91294.84;;;8.75;100.00
63493;BME280;49638;47.526;10.028;2023-05-15T01:33:44;91283.66;;;8.68;100.00
63493;BME280;49638;47.526;10.028;2023-05-15T01:36:47;91295.25;;;8.67;100.00
63493;BME280;49638;47.526;10.028;2023-05-15T01:39:54;91302.13;;;8.68;100.00
63493;BME280;49638;47.526;10.028;2023-05-15T01:43:02;91302.38;;;8.66;100.00
63493;BME280;49638;47.526;10.028;2023-05-15T01:46:07;91297.31;;;8.65;100.00
63493;BME280;49638;47.526;10.028;2023-05-15T01:49:10;91298.69;;;8.67;100.00
63493;BME280;49638;47.526;10.028;2023-05-15T01:52:13;91298.91;;;8.66;100.00
63493;BME280;49638;47.526;10.028;2023-05-15T01:55:15;91301.53;;;8.66;100.00
63493;BME280;49638;47.526;10.028;2023-05-15T01:58:17;91291.16;;;8.59;100.00
63493;BME280;49638;47.526;10.028;2023-05-15T02:01:18;91296.44;;;8.59;100.00
63493;BME280;49638;47.526;10.028;2023-05-15T02:04:19;91303.53;;;8.59;100.00
63493;BME280;49638;47.526;10.028;2023-05-15T02:07:20;91308.81;;;8.59;100.00
63493;BME280;49638;47.526;10.028;2023-05-15T02:10:21;91306.91;;;8.54;100.00
63493;BME280;49638;47.526;10.028;2023-05-15T02:13:24;91300.28;;;8.51;100.00
63493;BME280;49638;47.526;10.028;2023-05-15T02:16:25;91301.06;;;8.52;100.00
63493;BME280;49638;47.526;10.028;2023-05-15T02:19:25;91294.97;;;8.46;100.00
63493;BME280;49638;47.526;10.028;2023-05-15T02:22:26;91293.34;;;8.45;100.00
63493;BME280;49638;47.526;10.028;2023-05-15T02:25:36;91279.84;;;8.42;100.00
63493;BME280;49638;47.526;10.028;2023-05-15T02:28:46;91297.09;;;8.49;100.00
63493;BME280;49638;47.526;10.028;2023-05-15T02:38:22;91290.53;;;8.52;100.00
63493;BME280;49638;47.526;10.028;2023-05-15T02:41:26;91272.59;;;8.49;100.00
63493;BME280;49638;47.526;10.028;2023-05-15T02:44:27;91273.88;;;8.46;100.00
63493;BME280;49638;47.526;10.028;2023-05-15T02:47:28;91281.31;;;8.49;100.00
63493;BME280;49638;47.526;10.028;2023-05-15T02:50:29;91273.94;;;8.51;100.00
63493;BME280;49638;47.526;10.028;2023-05-15T02:53:31;91277.38;;;8.52;100.00
63493;BME280;49638;47.526;10.028;2023-05-15T02:56:31;91277.16;;;8.53;100.00
63493;BME280;49638;47.526;10.028;2023-05-15T02:59:33;91268.84;;;8.45;100.00
63493;BME280;49638;47.526;10.028;2023-05-15T03:02:34;91266.00;;;8.46;100.00
63493;BME280;49638;47.526;10.028;2023-05-15T03:05:35;91270.94;;;8.43;100.00
63493;BME280;49638;47.526;10.028;2023-05-15T03:08:35;91268.22;;;8.38;100.00
63493;BME280;49638;47.526;10.028;2023-05-15T03:11:35;91268.44;;;8.36;100.00
63493;BME280;49638;47.526;10.028;2023-05-15T03:14:35;91270.50;;;8.34;100.00
63493;BME280;49638;47.526;10.028;2023-05-15T03:17:36;91285.59;;;8.39;100.00
63493;BME280;49638;47.526;10.028;2023-05-15T03:20:36;91291.69;;;8.39;100.00
63493;BME280;49638;47.526;10.028;2023-05-15T03:23:36;91283.09;;;8.32;100.00
63493;BME280;49638;47.526;10.028;2023-05-15T03:26:36;91278.09;;;8.30;100.00
63493;BME280;49638;47.526;10.028;2023-05-15T03:29:39;91281.81;;;8.35;100.00
63493;BME280;49638;47.526;10.028;2023-05-15T03:32:39;91283.91;;;8.33;100.00
63493;BME280;49638;47.526;10.028;2023-05-15T03:35:39;91279.66;;;8.32;100.00
63493;BME280;49638;47.526;10.028;2023-05-15T03:38:40;91284.94;;;8.32;100.00
63493;BME280;49638;47.526;10.028;2023-05-15T03:41:42;91281.19;;;8.27;100.00
63493;BME280;49638;47.526;10.028;2023-05-15T03:44:43;91273.78;;;8.24;100.00
63493;BME280;49638;47.526;10.028;2023-05-15T03:47:43;91272.91;;;8.19;100.00
63493;BME280;49638;47.526;10.028;2023-05-15T03:50:44;91291.81;;;8.33;100.00
63493;BME280;49638;47.526;10.028;2023-05-15T03:53:44;91279.81;;;8.25;100.00
63493;BME280;49638;47.526;10.028;2023-05-15T03:56:45;91278.81;;;8.26;100.00
63493;BME280;49638;47.526;10.028;2023-05-15T03:59:45;91288.44;;;8.20;100.00
63493;BME280;49638;47.526;10.028;2023-05-15T04:02:45;91291.97;;;8.26;100.00
63493;BME280;49638;47.526;10.028;2023-05-15T04:05:45;91279.44;;;8.16;100.00
63493;BME280;49638;47.526;10.028;2023-05-15T04:08:49;91283.91;;;8.16;100.00
63493;BME280;49638;47.526;10.028;2023-05-15T04:11:49;91297.72;;;8.23;100.00
63493;BME280;49638;47.526;10.028;2023-05-15T04:14:49;91286.88;;;8.19;100.00
63493;BME280;49638;47.526;10.028;2023-05-15T04:17:51;91269.88;;;8.10;100.00
63493;BME280;49638;47.526;10.028;2023-05-15T04:20:51;91297.25;;;8.26;100.00
63493;BME280;49638;47.526;10.028;2023-05-15T04:23:52;91285.25;;;8.18;100.00
63493;BME280;49638;47.526;10.028;2023-05-15T04:26:52;91283.75;;;8.22;100.00
63493;BME280;49638;47.526;10.028;2023-05-15T04:29:52;91287.72;;;8.25;100.00
63493;BME280;49638;47.526;10.028;2023-05-15T04:32:52;91284.47;;;8.18;100.00
63493;BME280;49638;47.526;10.028;2023-05-15T04:35:53;91284.31;;;8.24;100.00
63493;BME280;49638;47.526;10.028;2023-05-15T04:38:53;91286.13;;;8.24;100.00
63493;BME280;49638;47.526;10.028;2023-05-15T04:41:53;91280.16;;;8.28;100.00
63493;BME280;49638;47.526;10.028;2023-05-15T04:44:54;91283.03;;;8.27;100.00
63493;BME280;49638;47.526;10.028;2023-05-15T04:47:54;91280.25;;;8.34;100.00
63493;BME280;49638;47.526;10.028;2023-05-15T04:50:54;91285.81;;;8.37;100.00
63493;BME280;49638;47.526;10.028;2023-05-15T04:53:55;91281.28;;;8.33;100.00
63493;BME280;49638;47.526;10.028;2023-05-15T04:56:55;91290.50;;;8.35;100.00
63493;BME280;49638;47.526;10.028;2023-05-15T04:59:55;91296.13;;;8.39;100.00
63493;BME280;49638;47.526;10.028;2023-05-15T05:02:57;91297.63;;;8.35;100.00
63493;BME280;49638;47.526;10.028;2023-05-15T05:05:57;91300.38;;;8.40;100.00
63493;BME280;49638;47.526;10.028;2023-05-15T05:08:57;91305.00;;;8.49;100.00
63493;BME280;49638;47.526;10.028;2023-05-15T05:11:58;91296.63;;;8.52;100.00
63493;BME280;49638;47.526;10.028;2023-05-15T05:14:59;91286.47;;;8.44;100.00
63493;BME280;49638;47.526;10.028;2023-05-15T05:17:59;91287.44;;;8.55;100.00
63493;BME280;49638;47.526;10.028;2023-05-15T05:21:00;91302.69;;;8.70;100.00
63493;BME280;49638;47.526;10.028;2023-05-15T05:24:00;91301.16;;;8.74;100.00
63493;BME280;49638;47.526;10.028;2023-05-15T05:27:00;91292.28;;;8.80;100.00
63493;BME280;49638;47.526;10.028;2023-05-15T05:30:01;91307.19;;;8.91;100.00
63493;BME280;49638;47.526;10.028;2023-05-15T05:33:02;91302.97;;;8.90;100.00
63493;BME280;49638;47.526;10.028;2023-05-15T05:36:02;91316.03;;;9.02;100.00
63493;BME280;49638;47.526;10.028;2023-05-15T05:39:04;91318.44;;;9.04;100.00
63493;BME280;49638;47.526;10.028;2023-05-15T05:42:04;91308.38;;;9.00;100.00
63493;BME280;49638;47.526;10.028;2023-05-15T05:45:05;91312.59;;;9.02;100.00
63493;BME280;49638;47.526;10.028;2023-05-15T05:48:06;91308.19;;;9.07;100.00
63493;BME280;49638;47.526;10.028;2023-05-15T05:51:06;91305.31;;;9.09;100.00
63493;BME280;49638;47.526;10.028;2023-05-15T05:54:06;91309.31;;;9.11;100.00
63493;BME280;49638;47.526;10.028;2023-05-15T05:57:08;91309.13;;;9.18;100.00
63493;BME280;49638;47.526;10.028;2023-05-15T06:00:09;91307.78;;;9.15;100.00
63493;BME280;49638;47.526;10.028;2023-05-15T06:03:10;91318.41;;;9.20;100.00
63493;BME280;49638;47.526;10.028;2023-05-15T06:06:10;91313.13;;;9.20;100.00
63493;BME280;49638;47.526;10.028;2023-05-15T06:09:11;91315.50;;;9.22;100.00
63493;BME280;49638;47.526;10.028;2023-05-15T06:12:11;91308.56;;;9.16;100.00
63493;BME280;49638;47.526;10.028;2023-05-15T06:15:11;91317.34;;;9.21;100.00
63493;BME280;49638;47.526;10.028;2023-05-15T06:18:12;91316.47;;;9.16;100.00
63493;BME280;49638;47.526;10.028;2023-05-15T06:21:12;91313.44;;;9.24;100.00
63493;BME280;49638;47.526;10.028;2023-05-15T06:24:13;91308.78;;;9.31;100.00
63493;BME280;49638;47.526;10.028;2023-05-15T06:27:13;91308.28;;;9.34;100.00
63493;BME280;49638;47.526;10.028;2023-05-15T06:30:13;91306.00;;;9.43;100.00
63493;BME280;49638;47.526;10.028;2023-05-15T06:33:14;91305.25;;;9.47;100.00
63493;BME280;49638;47.526;10.028;2023-05-15T06:36:15;91310.09;;;9.56;100.00
63493;BME280;49638;47.526;10.028;2023-05-15T06:39:15;91303.75;;;9.52;100.00
63493;BME280;49638;47.526;10.028;2023-05-15T06:42:15;91312.19;;;9.54;100.00
63493;BME280;49638;47.526;10.028;2023-05-15T06:45:16;91316.47;;;9.60;100.00
63493;BME280;49638;47.526;10.028;2023-05-15T06:48:16;91324.09;;;9.56;100.00
63493;BME280;49638;47.526;10.028;2023-05-15T06:51:16;91319.56;;;9.52;100.00
63493;BME280;49638;47.526;10.028;2023-05-15T06:54:17;91322.00;;;9.58;100.00
63493;BME280;49638;47.526;10.028;2023-05-15T06:57:18;91324.97;;;9.62;100.00
63493;BME280;49638;47.526;10.028;2023-05-15T07:00:18;91325.44;;;9.59;100.00
63493;BME280;49638;47.526;10.028;2023-05-15T07:03:19;91320.16;;;9.59;100.00
63493;BME280;49638;47.526;10.028;2023-05-15T07:06:19;91313.28;;;9.58;100.00
63493;BME280;49638;47.526;10.028;2023-05-15T07:09:20;91327.63;;;9.67;100.00
63493;BME280;49638;47.526;10.028;2023-05-15T07:12:20;91331.63;;;9.69;100.00
63493;BME280;49638;47.526;10.028;2023-05-15T07:15:20;91326.09;;;9.71;100.00
63493;BME280;49638;47.526;10.028;2023-05-15T07:18:21;91328.31;;;9.79;100.00
63493;BME280;49638;47.526;10.028;2023-05-15T07:21:21;91324.88;;;9.79;100.00
63493;BME280;49638;47.526;10.028;2023-05-15T07:24:21;91334.31;;;9.75;100.00
63493;BME280;49638;47.526;10.028;2023-05-15T07:27:21;91337.69;;;9.70;100.00
63493;BME280;49638;47.526;10.028;2023-05-15T07:30:22;91339.16;;;9.61;100.00
63493;BME280;49638;47.526;10.028;2023-05-15T07:33:22;91355.06;;;9.66;100.00
63493;BME280;49638;47.526;10.028;2023-05-15T07:36:22;91348.22;;;9.65;100.00
63493;BME280;49638;47.526;10.028;2023-05-15T07:39:23;91351.34;;;9.62;100.00
63493;BME280;49638;47.526;10.028;2023-05-15T07:42:24;91353.50;;;9.65;100.00
63493;BME280;49638;47.526;10.028;2023-05-15T07:45:24;91340.00;;;9.61;100.00
63493;BME280;49638;47.526;10.028;2023-05-15T07:48:24;91349.06;;;9.70;100.00
63493;BME280;49638;47.526;10.028;2023-05-15T07:51:25;91347.28;;;9.76;100.00
63493;BME280;49638;47.526;10.028;2023-05-15T07:54:25;91342.00;;;9.76;100.00
63493;BME280;49638;47.526;10.028;2023-05-15T07:57:25;91354.50;;;9.86;100.00
63493;BME280;49638;47.526;10.028;2023-05-15T08:00:26;91347.31;;;9.81;100.00
63493;BME280;49638;47.526;10.028;2023-05-15T08:03:26;91346.47;;;9.76;100.00
63493;BME280;49638;47.526;10.028;2023-05-15T08:06:26;91339.41;;;9.81;100.00
63493;BME280;49638;47.526;10.028;2023-05-15T08:09:27;91349.28;;;9.91;100.00
63493;BME280;49638;47.526;10.028;2023-05-15T08:12:27;91338.41;;;9.87;100.00
63493;BME280;49638;47.526;10.028;2023-05-15T08:15:27;91332.91;;;9.89;100.00
63493;BME280;49638;47.526;10.028;2023-05-15T08:18:28;91341.22;;;10.03;100.00
63493;BME280;49638;47.526;10.028;2023-05-15T08:21:28;91339.63;;;10.02;99.94
63493;BME280;49638;47.526;10.028;2023-05-15T08:24:29;91341.22;;;10.03;99.77
63493;BME280;49638;47.526;10.028;2023-05-15T08:27:30;91342.31;;;10.07;100.00
63493;BME280;49638;47.526;10.028;2023-05-15T08:30:30;91344.22;;;10.11;99.54
63493;BME280;49638;47.526;10.028;2023-05-15T08:33:30;91340.25;;;10.09;99.87
63493;BME280;49638;47.526;10.028;2023-05-15T08:36:30;91337.63;;;10.14;99.69
63493;BME280;49638;47.526;10.028;2023-05-15T08:39:31;91348.78;;;10.21;100.00
63493;BME280;49638;47.526;10.028;2023-05-15T08:42:36;91348.78;;;10.21;99.65
63493;BME280;49638;47.526;10.028;2023-05-15T08:45:40;91340.28;;;10.14;100.00
63493;BME280;49638;47.526;10.028;2023-05-15T08:48:40;91337.16;;;10.17;99.96
63493;BME280;49638;47.526;10.028;2023-05-15T08:51:41;91338.78;;;10.23;99.76
63493;BME280;49638;47.526;10.028;2023-05-15T08:54:41;91338.34;;;10.31;99.80
63493;BME280;49638;47.526;10.028;2023-05-15T08:57:42;91349.56;;;10.44;99.83
63493;BME280;49638;47.526;10.028;2023-05-15T09:00:43;91339.81;;;10.44;99.12
63493;BME280;49638;47.526;10.028;2023-05-15T09:03:44;91349.66;;;10.54;99.64
63493;BME280;49638;47.526;10.028;2023-05-15T09:06:46;91349.19;;;10.62;99.38
63493;BME280;49638;47.526;10.028;2023-05-15T09:09:46;91347.59;;;10.61;99.40
63493;BME280;49638;47.526;10.028;2023-05-15T09:12:49;91341.75;;;10.59;98.79
63493;BME280;49638;47.526;10.028;2023-05-15T09:15:50;91341.16;;;10.47;98.75
63493;BME280;49638;47.526;10.028;2023-05-15T09:18:52;91348.56;;;10.50;99.30
63493;BME280;49638;47.526;10.028;2023-05-15T09:21:52;91340.59;;;10.45;99.14
63493;BME280;49638;47.526;10.028;2023-05-15T09:24:53;91333.66;;;10.38;98.88
63493;BME280;49638;47.526;10.028;2023-05-15T09:27:54;91334.75;;;10.42;99.45
63493;BME280;49638;47.526;10.028;2023-05-15T09:31:01;91331.59;;;10.40;98.75
63493;BME280;49638;47.526;10.028;2023-05-15T09:34:02;91343.03;;;10.51;99.12
63493;BME280;49638;47.526;10.028;2023-05-15T09:37:07;91339.63;;;10.56;98.69
63493;BME280;49638;47.526;10.028;2023-05-15T09:40:09;91342.03;;;10.57;98.60
63493;BME280;49638;47.526;10.028;2023-05-15T09:43:10;91334.03;;;10.52;98.93
63493;BME280;49638;47.526;10.028;2023-05-15T09:46:11;91323.19;;;10.49;98.26
63493;BME280;49638;47.526;10.028;2023-05-15T09:49:14;91335.53;;;10.70;98.58
63493;BME280;49638;47.526;10.028;2023-05-15T09:52:15;91336.19;;;10.87;98.42
63493;BME280;49638;47.526;10.028;2023-05-15T09:55:15;91331.53;;;11.05;97.76
63493;BME280;49638;47.526;10.028;2023-05-15T09:58:18;91333.47;;;11.15;98.05
63493;BME280;49638;47.526;10.028;2023-05-15T10:01:20;91338.75;;;11.20;97.69
63493;BME280;49638;47.526;10.028;2023-05-15T10:04:20;91313.88;;;11.16;97.42
63493;BME280;49638;47.526;10.028;2023-05-15T10:10:29;91338.81;;;11.30;97.61
63493;BME280;49638;47.526;10.028;2023-05-15T10:13:30;91337.22;;;11.29;96.71
63493;BME280;49638;47.526;10.028;2023-05-15T10:16:33;91334.59;;;11.34;96.85
63493;BME280;49638;47.526;10.028;2023-05-15T10:19:34;91320.63;;;11.44;96.90
63493;BME280;49638;47.526;10.028;2023-05-15T10:22:40;91345.09;;;11.66;94.33
63493;BME280;49638;47.526;10.028;2023-05-15T10:25:55;91336.13;;;11.77;91.36
63493;BME280;49638;47.526;10.028;2023-05-15T10:28:59;91334.34;;;11.88;94.77
63493;BME280;49638;47.526;10.028;2023-05-15T10:32:00;91328.25;;;11.88;94.81
63493;BME280;49638;47.526;10.028;2023-05-15T10:35:02;91322.69;;;11.84;94.35
63493;BME280;49638;47.526;10.028;2023-05-15T10:38:03;91328.16;;;11.67;94.51
63493;BME280;49638;47.526;10.028;2023-05-15T10:41:04;91319.91;;;11.58;94.81
63493;BME280;49638;47.526;10.028;2023-05-15T10:44:06;91326.28;;;11.63;94.36
63493;BME280;49638;47.526;10.028;2023-05-15T10:47:07;91325.25;;;11.74;94.40
63493;BME280;49638;47.526;10.028;2023-05-15T10:50:08;91323.72;;;11.83;94.72
63493;BME280;49638;47.526;10.028;2023-05-15T10:53:09;91313.69;;;11.95;94.07
63493;BME280;49638;47.526;10.028;2023-05-15T10:56:14;91319.81;;;12.01;91.65
63493;BME280;49638;47.526;10.028;2023-05-15T10:59:16;91302.88;;;12.07;94.11
63493;BME280;49638;47.526;10.028;2023-05-15T11:02:25;91307.69;;;12.25;91.96
63493;BME280;49638;47.526;10.028;2023-05-15T11:05:25;91292.84;;;12.29;92.96
63493;BME280;49638;47.526;10.028;2023-05-15T11:08:26;91288.09;;;12.37;92.51
63493;BME280;49638;47.526;10.028;2023-05-15T11:18:05;91284.91;;;12.81;89.25
63493;BME280;49638;47.526;10.028;2023-05-15T11:21:05;91287.00;;;12.94;90.60
63493;BME280;49638;47.526;10.028;2023-05-15T11:24:10;91276.66;;;13.02;89.28
63493;BME280;49638;47.526;10.028;2023-05-15T11:27:11;91279.00;;;13.19;89.82
63493;BME280;49638;47.526;10.028;2023-05-15T11:30:17;91281.91;;;13.38;86.49
63493;BME280;49638;47.526;10.028;2023-05-15T11:33:20;91281.88;;;13.43;88.37
63493;BME280;49638;47.526;10.028;2023-05-15T11:36:23;91270.22;;;13.39;87.16
63493;BME280;49638;47.526;10.028;2023-05-15T11:39:24;91268.66;;;13.33;87.55
63493;BME280;49638;47.526;10.028;2023-05-15T11:42:25;91265.22;;;13.33;87.85
63493;BME280;49638;47.526;10.028;2023-05-15T11:45:31;91286.91;;;13.45;86.35
63493;BME280;49638;47.526;10.028;2023-05-15T11:48:39;91284.25;;;13.50;87.47
63493;BME280;49638;47.526;10.028;2023-05-15T11:51:40;91273.09;;;13.48;86.85
63493;BME280;49638;47.526;10.028;2023-05-15T11:54:42;91264.34;;;13.47;86.62
63493;BME280;49638;47.526;10.028;2023-05-15T11:57:45;91259.31;;;13.46;86.42
63493;BME280;49638;47.526;10.028;2023-05-15T12:00:47;91263.06;;;13.40;86.32
63493;BME280;49638;47.526;10.028;2023-05-15T12:03:48;91266.78;;;13.34;85.41
63493;BME280;49638;47.526;10.028;2023-05-15T12:06:48;91262.03;;;13.25;85.28
63493;BME280;49638;47.526;10.028;2023-05-15T12:09:49;91254.09;;;13.15;84.84
63493;BME280;49638;47.526;10.028;2023-05-15T12:12:51;91260.97;;;13.21;85.04
63493;BME280;49638;47.526;10.028;2023-05-15T12:15:53;91251.69;;;13.19;83.91
63493;BME280;49638;47.526;10.028;2023-05-15T12:18:57;91250.91;;;13.18;83.01
63493;BME280;49638;47.526;10.028;2023-05-15T12:21:57;91254.06;;;13.20;83.95
63493;BME280;49638;47.526;10.028;2023-05-15T12:24:57;91252.47;;;13.30;83.37
63493;BME280;49638;47.526;10.028;2023-05-15T12:28:00;91255.09;;;13.35;83.25
63493;BME280;49638;47.526;10.028;2023-05-15T12:31:01;91257.47;;;13.46;83.29
63493;BME280;49638;47.526;10.028;2023-05-15T12:34:01;91258.75;;;13.54;82.71
63493;BME280;49638;47.526;10.028;2023-05-15T12:37:02;91259.25;;;13.66;82.81
63493;BME280;49638;47.526;10.028;2023-05-15T12:40:04;91266.09;;;13.78;82.71
63493;BME280;49638;47.526;10.028;2023-05-15T12:43:09;91256.28;;;13.73;81.53
63493;BME280;49638;47.526;10.028;2023-05-15T12:46:12;91264.22;;;13.83;81.49
63493;BME280;49638;47.526;10.028;2023-05-15T12:49:12;91248.53;;;13.82;81.41
63493;BME280;49638;47.526;10.028;2023-05-15T12:52:13;91263.38;;;13.93;81.52
63493;BME280;49638;47.526;10.028;2023-05-15T12:55:27;91257.50;;;13.96;79.62
63493;BME280;49638;47.526;10.028;2023-05-15T12:58:31;91256.13;;;14.04;81.07
63493;BME280;49638;47.526;10.028;2023-05-15T13:01:31;91267.72;;;14.18;80.85
63493;BME280;49638;47.526;10.028;2023-05-15T13:04:32;91261.56;;;14.28;81.01
63493;BME280;49638;47.526;10.028;2023-05-15T13:07:32;91256.97;;;14.38;80.46
63493;BME280;49638;47.526;10.028;2023-05-15T13:10:34;91262.28;;;14.38;79.63
63493;BME280;49638;47.526;10.028;2023-05-15T13:13:43;91273.28;;;14.22;75.11
63493;BME280;49638;47.526;10.028;2023-05-15T13:16:45;91271.53;;;14.07;79.12
63493;BME280;49638;47.526;10.028;2023-05-15T13:19:45;91271.34;;;13.93;78.80
63493;BME280;49638;47.526;10.028;2023-05-15T13:22:45;91254.97;;;13.76;78.39
63493;BME280;49638;47.526;10.028;2023-05-15T13:25:46;91270.31;;;13.79;78.40
63493;BME280;49638;47.526;10.028;2023-05-15T13:28:46;91258.16;;;13.67;77.94
63493;BME280;49638;47.526;10.028;2023-05-15T13:31:47;91273.56;;;13.70;77.65
63493;BME280;49638;47.526;10.028;2023-05-15T13:34:47;91264.31;;;13.63;77.35
63493;BME280;49638;47.526;10.028;2023-05-15T13:37:47;91268.28;;;13.55;77.15
63493;BME280;49638;47.526;10.028;2023-05-15T13:40:48;91274.72;;;13.44;77.20
63493;BME280;49638;47.526;10.028;2023-05-15T13:43:48;91259.91;;;13.17;77.53
63493;BME280;49638;47.526;10.028;2023-05-15T13:46:49;91272.94;;;13.03;77.29
63493;BME280;49638;47.526;10.028;2023-05-15T13:49:49;91260.75;;;12.87;77.55
63493;BME280;49638;47.526;10.028;2023-05-15T13:52:49;91274.56;;;12.84;78.05
63493;BME280;49638;47.526;10.028;2023-05-15T13:55:50;91280.16;;;12.77;78.43
63493;BME280;49638;47.526;10.028;2023-05-15T13:58:50;91280.66;;;12.79;80.07
63493;BME280;49638;47.526;10.028;2023-05-15T14:01:50;91272.72;;;12.69;80.36
63493;BME280;49638;47.526;10.028;2023-05-15T14:04:51;91267.94;;;12.66;80.78
63493;BME280;49638;47.526;10.028;2023-05-15T14:07:52;91282.78;;;12.72;81.15
63493;BME280;49638;47.526;10.028;2023-05-15T14:10:52;91271.13;;;12.63;81.76
63493;BME280;49638;47.526;10.028;2023-05-15T14:13:52;91287.28;;;12.67;81.90
63493;BME280;49638;47.526;10.028;2023-05-15T14:16:53;91284.94;;;12.70;82.21
63493;BME280;49638;47.526;10.028;2023-05-15T14:19:53;91285.47;;;12.67;82.74
63493;BME280;49638;47.526;10.028;2023-05-15T14:22:53;91282.28;;;12.70;82.50
63493;BME280;49638;47.526;10.028;2023-05-15T14:25:54;91294.19;;;12.68;82.80
63493;BME280;49638;47.526;10.028;2023-05-15T14:28:54;91288.91;;;12.68;83.31
63493;BME280;49638;47.526;10.028;2023-05-15T14:31:54;91270.06;;;12.64;82.93
63493;BME280;49638;47.526;10.028;2023-05-15T14:34:55;91283.84;;;12.71;83.06
63493;BME280;49638;47.526;10.028;2023-05-15T14:37:58;91271.94;;;12.59;82.62
63493;BME280;49638;47.526;10.028;2023-05-15T14:40:59;91258.44;;;12.50;82.62
63493;BME280;49638;47.526;10.028;2023-05-15T14:43:59;91273.53;;;12.54;82.85
63493;BME280;49638;47.526;10.028;2023-05-15T14:47:06;91284.94;;;12.60;82.40
63493;BME280;49638;47.526;10.028;2023-05-15T14:50:07;91270.84;;;12.60;83.13
63493;BME280;49638;47.526;10.028;2023-05-15T14:53:07;91274.84;;;12.67;82.73
63493;BME280;49638;47.526;10.028;2023-05-15T14:56:07;91268.72;;;12.67;82.00
63493;BME280;49638;47.526;10.028;2023-05-15T14:59:08;91276.44;;;12.78;81.44
63493;BME280;49638;47.526;10.028;2023-05-15T15:02:08;91257.34;;;12.71;81.09
63493;BME280;49638;47.526;10.028;2023-05-15T15:05:08;91269.28;;;12.84;81.03
63493;BME280;49638;47.526;10.028;2023-05-15T15:08:09;91267.91;;;12.87;81.13
63493;BME280;49638;47.526;10.028;2023-05-15T15:11:09;91280.66;;;12.90;81.02
63493;BME280;49638;47.526;10.028;2023-05-15T15:14:10;91278.53;;;12.87;81.11
63493;BME280;49638;47.526;10.028;2023-05-15T15:17:10;91271.66;;;12.81;80.82
63493;BME280;49638;47.526;10.028;2023-05-15T15:20:10;91274.56;;;12.79;80.44
63493;BME280;49638;47.526;10.028;2023-05-15T15:23:11;91290.72;;;12.83;80.31
63493;BME280;49638;47.526;10.028;2023-05-15T15:26:11;91278.81;;;12.75;80.48
63493;BME280;49638;47.526;10.028;2023-05-15T15:29:11;91278.28;;;12.73;79.82
63493;BME280;49638;47.526;10.028;2023-05-15T15:32:12;91272.19;;;12.67;80.58
63493;BME280;49638;47.526;10.028;2023-05-15T15:35:12;91278.81;;;12.75;80.22
63493;BME280;49638;47.526;10.028;2023-05-15T15:38:12;91274.31;;;12.75;80.21
63493;BME280;49638;47.526;10.028;2023-05-15T15:41:13;91285.16;;;12.79;80.26
63493;BME280;49638;47.526;10.028;2023-05-15T15:44:13;91279.31;;;12.77;80.13
63493;BME280;49638;47.526;10.028;2023-05-15T15:47:13;91284.34;;;12.84;80.42
63493;BME280;49638;47.526;10.028;2023-05-15T15:50:13;91276.94;;;12.91;80.31
63493;BME280;49638;47.526;10.028;2023-05-15T15:53:14;91264.72;;;13.00;79.91
63493;BME280;49638;47.526;10.028;2023-05-15T15:56:14;91283.78;;;13.22;79.89
63493;BME280;49638;47.526;10.028;2023-05-15T15:59:15;91285.13;;;13.30;79.77
63493;BME280;49638;47.526;10.028;2023-05-15T16:02:15;91284.28;;;13.40;80.20
63493;BME280;49638;47.526;10.028;2023-05-15T16:05:16;91268.34;;;13.45;79.98
63493;BME280;49638;47.526;10.028;2023-05-15T16:08:16;91277.34;;;13.54;79.40
63493;BME280;49638;47.526;10.028;2023-05-15T16:11:16;91289.53;;;13.55;79.10